createdAt,value
2023-04-02T00:02:35.644Z,1.37
2023-04-02T00:05:50.097Z,1.55
2023-04-02T00:08:42.794Z,2.80
2023-04-02T00:11:33.235Z,2.50
2023-04-02T00:14:26.363Z,2.60
2023-04-02T00:17:16.700Z,1.88
2023-04-02T00:20:08.279Z,1.40
2023-04-02T00:22:57.264Z,3.40
2023-04-02T00:25:47.340Z,2.55
2023-04-02T00:28:36.600Z,1.77
2023-04-02T00:31:27.215Z,3.25
2023-04-02T00:34:21.125Z,4.00
2023-04-02T00:37:18.284Z,3.38
2023-04-02T00:40:16.755Z,4.50
2023-04-02T00:43:08.887Z,2.45
2023-04-02T00:46:01.371Z,4.28
2023-04-02T00:48:55.568Z,5.28
2023-04-02T00:51:51.432Z,3.47
2023-04-02T00:54:44.513Z,4.35
2023-04-02T00:57:33.715Z,4.43
2023-04-02T01:00:24.919Z,3.70
2023-04-02T01:03:34.859Z,2.63
2023-04-02T01:06:24.028Z,3.58
2023-04-02T01:09:26.027Z,3.28
2023-04-02T01:12:40.949Z,6.25
2023-04-02T01:15:36.376Z,3.77
2023-04-02T01:18:46.436Z,5.35
2023-04-02T01:21:55.432Z,2.90
2023-04-02T01:24:45.883Z,5.13
2023-04-02T01:27:41.351Z,6.10
2023-04-02T01:30:31.674Z,5.45
2023-04-02T01:33:21.697Z,3.85
2023-04-02T01:36:16.413Z,4.95
2023-04-02T01:39:16.542Z,3.25
2023-04-02T01:42:13.698Z,6.53
2023-04-02T01:45:05.186Z,3.20
2023-04-02T01:47:55.071Z,3.13
2023-04-02T01:50:45.779Z,4.30
2023-04-02T01:53:34.248Z,3.28
2023-04-02T01:56:23.006Z,3.85
2023-04-02T01:59:12.176Z,4.03
2023-04-02T02:02:03.792Z,3.53
2023-04-02T02:04:54.210Z,2.58
2023-04-02T02:07:43.170Z,4.78
2023-04-02T02:10:36.253Z,4.18
2023-04-02T02:13:25.366Z,2.60
2023-04-02T02:16:18.962Z,3.47
2023-04-02T02:19:07.744Z,3.80
2023-04-02T02:22:04.594Z,4.10
2023-04-02T02:24:53.229Z,3.30
2023-04-02T02:27:48.911Z,4.37
2023-04-02T02:30:41.444Z,2.97
2023-04-02T02:33:33.662Z,3.58
2023-04-02T02:36:26.161Z,3.15
2023-04-02T02:39:21.420Z,4.88
2023-04-02T02:42:15.011Z,5.55
2023-04-02T02:45:08.172Z,4.05
2023-04-02T02:47:58.549Z,5.95
2023-04-02T02:50:47.962Z,9.57
2023-04-02T02:53:47.517Z,8.45
2023-04-02T02:56:42.312Z,8.52
2023-04-02T02:59:32.313Z,8.38
2023-04-02T03:02:21.029Z,12.32
2023-04-02T03:05:11.111Z,11.93
2023-04-02T03:08:02.198Z,13.80
2023-04-02T03:10:57.013Z,12.35
2023-04-02T03:13:50.289Z,14.13
2023-04-02T03:16:43.150Z,13.70
2023-04-02T03:19:39.744Z,14.85
2023-04-02T03:22:35.853Z,13.95
2023-04-02T03:25:37.602Z,15.52
2023-04-02T03:28:31.876Z,17.05
2023-04-02T03:31:26.562Z,16.60
2023-04-02T03:34:19.397Z,17.95
2023-04-02T03:37:15.617Z,18.45
2023-04-02T03:40:09.917Z,18.95
2023-04-02T03:43:06.477Z,17.60
2023-04-02T03:45:58.888Z,16.85
2023-04-02T03:48:52.193Z,18.45
2023-04-02T03:51:47.865Z,19.13
2023-04-02T03:54:37.119Z,20.25
2023-04-02T03:57:31.398Z,19.23
2023-04-02T04:00:26.031Z,18.35
2023-04-02T04:03:17.385Z,19.23
2023-04-02T04:06:11.459Z,21.58
2023-04-02T04:09:07.152Z,19.97
2023-04-02T04:12:06.743Z,22.17
2023-04-02T04:15:01.309Z,19.92
2023-04-02T04:17:56.698Z,23.30
2023-04-02T04:20:56.421Z,21.80
2023-04-02T04:23:52.211Z,21.17
2023-04-02T04:26:49.483Z,25.40
2023-04-02T04:29:45.631Z,25.60
2023-04-02T04:32:38.970Z,22.33
2023-04-02T04:35:31.793Z,32.75
2023-04-02T04:38:27.701Z,24.70
2023-04-02T04:41:22.609Z,26.25
2023-04-02T04:44:18.799Z,24.52
2023-04-02T04:47:11.828Z,23.27
2023-04-02T04:50:06.703Z,24.15
2023-04-02T04:52:55.224Z,26.87
2023-04-02T04:55:45.770Z,23.52
2023-04-02T04:58:38.565Z,31.98
2023-04-02T05:01:30.415Z,30.23
2023-04-02T05:04:22.705Z,31.40
2023-04-02T05:07:15.013Z,28.07
2023-04-02T05:10:10.529Z,29.00
2023-04-02T05:13:05.085Z,29.45
2023-04-02T05:16:05.995Z,24.60
2023-04-02T05:19:00.108Z,21.95
2023-04-02T05:21:51.831Z,22.42
2023-04-02T05:24:58.475Z,21.10
2023-04-02T05:27:52.713Z,21.42
2023-04-02T05:30:49.442Z,23.65
2023-04-02T05:33:40.671Z,24.53
2023-04-02T05:36:31.393Z,22.50
2023-04-02T05:39:23.823Z,19.33
2023-04-02T05:42:21.416Z,22.27
2023-04-02T05:45:20.787Z,21.55
2023-04-02T05:48:23.194Z,21.98
2023-04-02T05:51:19.106Z,19.13
2023-04-02T05:54:15.759Z,24.35
2023-04-02T05:57:08.617Z,22.65
2023-04-02T05:59:58.991Z,25.75
2023-04-02T06:02:54.922Z,19.80
2023-04-02T06:05:46.531Z,19.92
2023-04-02T06:08:43.026Z,21.05
2023-04-02T06:11:34.074Z,22.23
2023-04-02T06:14:22.632Z,21.88
2023-04-02T06:17:15.423Z,23.30
2023-04-02T06:20:07.137Z,23.08
2023-04-02T06:23:01.344Z,22.42
2023-04-02T06:25:56.457Z,23.23
2023-04-02T06:28:48.553Z,24.30
2023-04-02T06:31:40.218Z,23.03
2023-04-02T06:34:30.831Z,22.67
2023-04-02T06:37:25.901Z,26.00
2023-04-02T06:40:33.022Z,28.83
2023-04-02T06:43:33.258Z,29.98
2023-04-02T06:46:27.693Z,27.65
2023-04-02T06:49:23.119Z,30.67
2023-04-02T06:52:16.494Z,31.83
2023-04-02T06:55:20.425Z,35.88
2023-04-02T06:58:10.614Z,32.67
2023-04-02T07:01:00.670Z,32.63
2023-04-02T07:03:49.457Z,34.17
2023-04-02T07:06:38.022Z,34.45
2023-04-02T07:09:26.947Z,36.00
2023-04-02T07:12:15.847Z,37.95
2023-04-02T07:15:04.424Z,34.50
2023-04-02T07:17:57.179Z,38.75
2023-04-02T07:20:45.815Z,36.90
2023-04-02T07:23:34.317Z,47.60
2023-04-02T07:26:25.432Z,51.13
2023-04-02T07:29:17.409Z,40.25
2023-04-02T07:32:06.198Z,37.08
2023-04-02T07:34:56.062Z,52.53
2023-04-02T07:37:44.674Z,53.97
2023-04-02T07:40:33.138Z,43.00
2023-04-02T07:43:21.845Z,43.22
2023-04-02T07:46:11.753Z,46.75
2023-04-02T07:49:00.249Z,44.15
2023-04-02T07:51:53.352Z,47.03
2023-04-02T07:54:41.879Z,43.35
2023-04-02T07:57:30.495Z,44.28
2023-04-02T08:00:20.702Z,44.88
2023-04-02T08:03:09.176Z,42.95
2023-04-02T08:05:59.280Z,50.33
2023-04-02T08:08:49.304Z,43.72
2023-04-02T08:11:37.781Z,48.92
2023-04-02T08:14:26.282Z,51.72
2023-04-02T08:17:14.985Z,47.72
2023-04-02T08:20:04.360Z,44.97
2023-04-02T08:22:52.852Z,45.70
2023-04-02T08:25:42.698Z,43.78
2023-04-02T08:28:31.244Z,39.10
2023-04-02T08:31:19.883Z,39.63
2023-04-02T08:34:09.258Z,40.38
2023-04-02T08:36:59.188Z,44.58
2023-04-02T08:39:47.994Z,43.00
2023-04-02T08:42:42.503Z,34.20
2023-04-02T08:45:41.824Z,32.27
2023-04-02T08:48:34.831Z,26.60
2023-04-02T08:51:25.776Z,37.20
2023-04-02T08:54:19.927Z,27.95
2023-04-02T08:57:16.170Z,25.33
2023-04-02T09:00:17.581Z,34.92
2023-04-02T09:03:11.868Z,29.93
2023-04-02T09:06:02.427Z,32.63
2023-04-02T09:08:52.912Z,30.17
2023-04-02T09:11:49.554Z,28.73
2023-04-02T09:14:44.501Z,34.45
2023-04-02T09:17:42.776Z,34.45
2023-04-02T09:20:39.704Z,27.98
2023-04-02T09:23:29.246Z,20.98
2023-04-02T09:26:23.581Z,23.20
2023-04-02T09:29:39.279Z,45.55
2023-04-02T09:32:52.544Z,50.00
2023-04-02T09:35:57.667Z,43.97
2023-04-02T09:38:59.567Z,43.10
2023-04-02T09:41:59.008Z,40.78
2023-04-02T09:44:53.315Z,32.08
2023-04-02T09:47:42.556Z,29.13
2023-04-02T09:50:34.531Z,35.53
2023-04-02T09:53:31.527Z,32.70
2023-04-02T09:56:21.683Z,36.83
2023-04-02T09:59:16.933Z,45.25
2023-04-02T10:02:06.355Z,42.58
2023-04-02T10:04:55.107Z,39.90
2023-04-02T10:07:46.079Z,41.23
2023-04-02T10:10:37.649Z,37.42
2023-04-02T10:13:28.489Z,40.87
2023-04-02T10:16:24.395Z,32.13
2023-04-02T10:19:22.315Z,34.10
2023-04-02T10:22:15.856Z,32.25
2023-04-02T10:25:14.219Z,29.48
2023-04-02T10:28:14.102Z,32.03
2023-04-02T10:31:09.946Z,26.58
2023-04-02T10:34:02.519Z,31.40
2023-04-02T10:36:52.832Z,24.17
2023-04-02T10:39:46.928Z,25.02
2023-04-02T10:42:42.222Z,21.83
2023-04-02T10:45:40.056Z,19.60
2023-04-02T10:48:34.751Z,14.40
2023-04-02T10:51:33.718Z,16.63
2023-04-02T10:54:38.012Z,12.73
2023-04-02T10:57:38.208Z,18.70
2023-04-02T11:00:30.000Z,12.70
2023-04-02T11:03:25.504Z,19.95
2023-04-02T11:06:20.125Z,18.23
2023-04-02T11:09:17.998Z,13.00
2023-04-02T11:12:08.546Z,11.77
2023-04-02T11:14:58.836Z,14.67
2023-04-02T11:17:48.285Z,22.60
2023-04-02T11:20:58.431Z,25.75
2023-04-02T11:23:58.143Z,14.37
2023-04-02T11:26:47.822Z,14.10
2023-04-02T11:29:39.456Z,11.52
2023-04-02T11:32:35.853Z,9.60
2023-04-02T11:35:48.223Z,15.85
2023-04-02T11:38:52.924Z,16.55
2023-04-02T11:42:03.856Z,13.43
2023-04-02T11:44:52.413Z,11.93
2023-04-02T11:47:42.260Z,9.10
2023-04-02T11:50:32.265Z,7.38
2023-04-02T11:53:24.218Z,5.50
2023-04-02T11:56:21.327Z,4.10
2023-04-02T11:59:18.694Z,6.63
2023-04-02T12:02:19.766Z,4.03
2023-04-02T12:05:21.878Z,4.05
2023-04-02T12:08:23.347Z,4.03
2023-04-02T12:11:12.299Z,2.92
2023-04-02T12:14:01.882Z,2.93
2023-04-02T12:16:50.942Z,2.95
2023-04-02T12:19:39.370Z,2.67
2023-04-02T12:22:31.491Z,2.70
2023-04-02T12:25:29.258Z,2.00
2023-04-02T12:28:19.751Z,2.10
2023-04-02T12:31:16.615Z,4.43
2023-04-02T12:34:05.132Z,3.08
2023-04-02T12:36:59.556Z,3.60
2023-04-02T12:39:56.340Z,3.27
2023-04-02T12:42:44.908Z,2.97
2023-04-02T12:45:36.665Z,2.80
2023-04-02T12:48:25.577Z,1.70
2023-04-02T12:51:14.318Z,3.17
2023-04-02T12:54:03.045Z,3.33
2023-04-02T12:56:53.046Z,3.05
2023-04-02T12:59:42.721Z,2.10
2023-04-02T13:02:33.005Z,3.07
2023-04-02T13:05:35.887Z,12.00
2023-04-02T13:08:27.389Z,5.22
2023-04-02T13:11:16.228Z,2.20
2023-04-02T13:14:08.138Z,2.25
2023-04-02T13:16:56.999Z,2.55
2023-04-02T13:19:45.456Z,2.78
2023-04-02T13:22:34.315Z,2.22
2023-04-02T13:25:29.117Z,1.60
2023-04-02T13:28:18.090Z,7.70
2023-04-02T13:31:09.773Z,4.22
2023-04-02T13:33:58.697Z,14.00
2023-04-02T13:36:47.600Z,6.00
2023-04-02T13:39:36.106Z,5.40
2023-04-02T13:42:24.616Z,1.48
2023-04-02T13:45:26.745Z,1.77
2023-04-02T13:48:18.415Z,1.88
2023-04-02T13:51:07.028Z,1.50
2023-04-02T13:53:58.500Z,1.15
2023-04-02T13:56:47.221Z,1.10
2023-04-02T13:59:35.678Z,1.80
2023-04-02T14:02:26.409Z,2.38
2023-04-02T14:05:28.444Z,2.80
2023-04-02T14:08:24.074Z,2.70
2023-04-02T14:11:24.893Z,2.70
2023-04-02T14:14:25.491Z,4.15
2023-04-02T14:17:24.381Z,3.03
2023-04-02T14:20:26.160Z,2.45
2023-04-02T14:23:34.047Z,3.72
2023-04-02T14:26:28.878Z,2.95
2023-04-02T14:29:28.099Z,2.60
2023-04-02T14:32:23.616Z,5.43
2023-04-02T14:35:20.816Z,2.40
2023-04-02T14:38:18.583Z,3.88
2023-04-02T14:41:14.944Z,3.50
2023-04-02T14:44:06.184Z,6.30
2023-04-02T14:47:01.418Z,5.28
2023-04-02T14:49:54.912Z,3.80
2023-04-02T14:52:48.620Z,4.47
2023-04-02T14:55:42.518Z,3.53
2023-04-02T14:58:35.728Z,3.28
2023-04-02T15:01:29.644Z,4.15
2023-04-02T15:04:24.007Z,4.35
2023-04-02T15:07:18.907Z,6.65
2023-04-02T15:10:15.931Z,7.13
2023-04-02T15:13:12.794Z,4.95
2023-04-02T15:16:11.564Z,4.32
2023-04-02T15:19:02.040Z,7.72
2023-04-02T15:22:15.505Z,7.35
2023-04-02T15:25:20.650Z,8.30
2023-04-02T15:28:24.084Z,4.68
2023-04-02T15:31:15.034Z,3.05
2023-04-02T15:34:17.032Z,3.25
2023-04-02T15:37:12.936Z,4.78
2023-04-02T15:40:20.274Z,3.20
2023-04-02T15:43:17.628Z,3.58
2023-04-02T15:46:16.097Z,5.00
2023-04-02T15:49:20.269Z,4.15
2023-04-02T15:52:13.618Z,3.55
2023-04-02T15:55:16.522Z,4.38
2023-04-02T15:58:24.096Z,4.80
2023-04-02T16:01:21.896Z,5.00
2023-04-02T16:04:41.700Z,5.13
2023-04-02T16:07:51.560Z,4.63
2023-04-02T16:10:43.231Z,3.40
2023-04-02T16:13:33.876Z,5.05
2023-04-02T16:16:28.277Z,3.67
2023-04-02T16:19:24.155Z,6.07
2023-04-02T16:22:19.355Z,3.08
2023-04-02T16:25:17.283Z,3.90
2023-04-02T16:28:16.406Z,5.47
2023-04-02T16:31:12.063Z,3.83
2023-04-02T16:34:10.947Z,4.63
2023-04-02T16:37:06.285Z,4.75
2023-04-02T16:40:01.928Z,4.80
2023-04-02T16:42:57.227Z,4.53
2023-04-02T16:45:55.251Z,2.97
2023-04-02T16:48:51.752Z,3.28
2023-04-02T16:51:46.499Z,3.80
2023-04-02T16:54:42.107Z,3.53
2023-04-02T16:57:38.511Z,4.25
2023-04-02T17:00:38.221Z,3.17
2023-04-02T17:03:43.187Z,3.60
2023-04-02T17:06:37.399Z,4.75
2023-04-02T17:09:32.169Z,3.20
2023-04-02T17:12:22.433Z,3.25
2023-04-02T17:15:27.871Z,3.38
2023-04-02T17:18:20.388Z,2.40
2023-04-02T17:21:12.152Z,2.53
2023-04-02T17:24:17.536Z,5.00
2023-04-02T17:27:14.969Z,3.03
2023-04-02T17:30:13.127Z,2.03
2023-04-02T17:33:01.676Z,2.33
2023-04-02T17:35:58.907Z,4.38
2023-04-02T17:38:57.885Z,3.00
2023-04-02T17:41:50.608Z,5.35
2023-04-02T17:45:00.132Z,3.72
2023-04-02T17:47:53.544Z,4.95
2023-04-02T17:51:09.233Z,4.22
2023-04-02T17:54:08.433Z,3.40
2023-04-02T17:57:11.437Z,4.13
2023-04-02T18:00:17.763Z,4.72
2023-04-02T18:03:29.943Z,4.80
2023-04-02T18:06:23.096Z,3.50
2023-04-02T18:09:27.838Z,3.22
2023-04-02T18:12:29.738Z,3.20
2023-04-02T18:15:46.152Z,3.65
2023-04-02T18:19:10.097Z,2.67
2023-04-02T18:22:03.536Z,2.17
2023-04-02T18:25:15.455Z,2.15
2023-04-02T18:28:17.527Z,2.70
2023-04-02T18:31:18.787Z,2.33
2023-04-02T18:34:32.727Z,4.10
2023-04-02T18:37:29.083Z,3.07
2023-04-02T18:40:30.072Z,2.30
2023-04-02T18:43:34.020Z,2.15
2023-04-02T18:46:33.398Z,2.92
2023-04-02T18:49:28.302Z,2.40
2023-04-02T18:52:19.147Z,2.10
2023-04-02T18:55:15.594Z,2.10
2023-04-02T18:58:10.587Z,3.38
2023-04-02T19:01:00.441Z,2.30
2023-04-02T19:03:52.859Z,2.80
2023-04-02T19:06:45.456Z,3.23
2023-04-02T19:09:36.794Z,4.53
2023-04-02T19:12:25.254Z,4.93
2023-04-02T19:15:17.516Z,6.40
2023-04-02T19:18:14.863Z,4.93
2023-04-02T19:21:15.653Z,5.18
2023-04-02T19:24:18.617Z,6.50
2023-04-02T19:27:09.789Z,9.27
2023-04-02T19:30:05.236Z,6.15
2023-04-02T19:32:59.819Z,6.53
2023-04-02T19:35:54.179Z,4.65
2023-04-02T19:38:50.797Z,5.28
2023-04-02T19:41:41.887Z,6.77
2023-04-02T19:44:30.804Z,6.18
2023-04-02T19:47:19.663Z,6.43
2023-04-02T19:50:09.032Z,4.88
2023-04-02T19:52:57.803Z,4.55
2023-04-02T19:55:48.210Z,6.57
2023-04-02T19:58:37.594Z,4.72
2023-04-02T20:01:26.353Z,5.25
2023-04-02T20:04:15.276Z,4.40
2023-04-02T20:07:04.360Z,6.45
2023-04-02T20:09:53.131Z,5.07
2023-04-02T20:12:43.235Z,4.90
2023-04-02T20:15:32.375Z,5.77
2023-04-02T20:18:21.517Z,5.17
2023-04-02T20:21:10.823Z,6.15
2023-04-02T20:23:59.542Z,4.67
2023-04-02T20:26:48.285Z,6.75
2023-04-02T20:29:39.604Z,7.25
2023-04-02T20:32:28.559Z,9.18
2023-04-02T20:35:17.385Z,6.50
2023-04-02T20:38:08.257Z,4.03
2023-04-02T20:40:56.986Z,5.40
2023-04-02T20:43:45.942Z,5.53
2023-04-02T20:46:36.188Z,3.28
2023-04-02T20:49:24.996Z,4.75
2023-04-02T20:52:13.755Z,3.40
2023-04-02T20:55:03.559Z,4.80
2023-04-02T20:57:52.485Z,3.75
2023-04-02T21:00:40.941Z,3.70
2023-04-02T21:03:30.852Z,5.03
2023-04-02T21:06:21.376Z,5.13
2023-04-02T21:09:19.535Z,4.75
2023-04-02T21:12:08.455Z,4.70
2023-04-02T21:15:01.037Z,4.07
2023-04-02T21:17:50.907Z,4.13
2023-04-02T21:20:40.823Z,3.47
2023-04-02T21:23:29.299Z,2.90
2023-04-02T21:26:18.854Z,3.58
2023-04-02T21:29:07.927Z,3.53
2023-04-02T21:31:56.508Z,3.35
2023-04-02T21:34:45.336Z,4.50
2023-04-02T21:37:35.221Z,3.37
2023-04-02T21:40:23.760Z,2.83
2023-04-02T21:43:12.255Z,2.80
2023-04-02T21:46:01.500Z,2.97
2023-04-02T21:48:51.114Z,2.75
2023-04-02T21:51:41.335Z,4.47
2023-04-02T21:54:31.113Z,2.70
2023-04-02T21:57:19.626Z,2.38
2023-04-02T22:00:12.349Z,3.30
2023-04-02T22:03:00.977Z,2.72
2023-04-02T22:05:49.572Z,4.05
2023-04-02T22:08:39.499Z,2.85
2023-04-02T22:11:31.678Z,3.95
2023-04-02T22:14:20.455Z,6.22
2023-04-02T22:17:08.972Z,3.03
2023-04-02T22:19:57.463Z,3.05
2023-04-02T22:22:46.035Z,4.97
2023-04-02T22:25:34.662Z,3.75
2023-04-02T22:28:24.626Z,2.97
2023-04-02T22:31:15.585Z,3.35
2023-04-02T22:34:06.146Z,2.72
2023-04-02T22:36:54.604Z,5.00
2023-04-02T22:39:42.998Z,3.07
2023-04-02T22:42:31.959Z,2.58
2023-04-02T22:45:21.980Z,1.80
2023-04-02T22:48:10.676Z,2.85
2023-04-02T22:50:59.236Z,2.20
2023-04-02T22:53:48.327Z,2.47
2023-04-02T22:56:37.535Z,2.25
2023-04-02T22:59:26.590Z,2.87
2023-04-02T23:02:16.558Z,2.58
2023-04-02T23:05:05.369Z,3.15
2023-04-02T23:07:53.935Z,3.42
2023-04-02T23:10:42.401Z,3.00
2023-04-02T23:13:30.951Z,3.00
2023-04-02T23:16:19.985Z,2.42
2023-04-02T23:19:09.966Z,1.95
2023-04-02T23:21:58.360Z,2.60
2023-04-02T23:24:47.997Z,2.15
2023-04-02T23:27:36.898Z,2.77
2023-04-02T23:30:25.453Z,4.07
2023-04-02T23:33:14.000Z,2.30
2023-04-02T23:36:08.052Z,2.33
2023-04-02T23:38:59.735Z,2.10
2023-04-02T23:41:49.056Z,2.63
2023-04-02T23:44:37.527Z,1.42
2023-04-02T23:47:26.100Z,2.92
2023-04-02T23:50:14.552Z,3.55
2023-04-02T23:53:04.354Z,1.88
2023-04-02T23:55:52.974Z,1.85
2023-04-02T23:58:41.440Z,1.00
